Time;durP1;ratioP1;P1;durP2;ratioP2;P2;SDS_P1;SDS_P2;PMS_P1;PMS_P2;Temp;Humidity;BMP_temperature;BMP_pressure;BME280_temperature;BME280_humidity;BME280_pressure;Samples;Min_cycle;Max_cycle;Signal;HPM_P1;HPM_P2
2021/10/12 00:00:37;;;;;;;52.00;28.30;;;;;;;7.34;55.41;98986.23;113431;1193;98981;-71
2021/10/12 00:03:11;;;;;;;54.50;27.30;;;;;;;7.31;55.47;98986.08;113306;1194;99009;-71
2021/10/12 00:05:40;;;;;;;53.50;28.20;;;;;;;7.28;55.58;98982.01;113343;1193;113579;-71
2021/10/12 00:08:08;;;;;;;54.00;28.90;;;;;;;7.25;55.66;98981.65;113502;1193;98980;-72
2021/10/12 00:10:36;;;;;;;54.60;28.80;;;;;;;7.25;55.70;98976.05;113428;1193;107327;-71
2021/10/12 00:13:04;;;;;;;53.10;28.90;;;;;;;7.23;55.76;98973.30;113328;1193;98940;-71
2021/10/12 00:15:33;;;;;;;53.60;30.10;;;;;;;7.21;55.73;98972.22;113442;1193;98905;-72
2021/10/12 00:18:06;;;;;;;58.10;31.10;;;;;;;7.17;55.76;98971.05;113480;1193;112476;-71
2021/10/12 00:20:38;;;;;;;53.00;30.40;;;;;;;7.16;55.83;98972.18;113439;1193;96364;-73
2021/10/12 00:23:11;;;;;;;55.10;29.40;;;;;;;7.14;55.84;98967.71;113466;1193;107523;-70
2021/10/12 00:25:39;;;;;;;54.80;30.70;;;;;;;7.11;55.90;98967.55;113423;1193;98998;-73
2021/10/12 00:28:07;;;;;;;56.00;29.60;;;;;;;7.08;55.96;98962.92;113455;1194;98925;-70
2021/10/12 00:30:35;;;;;;;54.90;30.00;;;;;;;7.06;55.88;98966.03;113466;1193;112622;-72
2021/10/12 00:33:08;;;;;;;55.90;31.30;;;;;;;7.05;55.84;98961.01;113268;1195;97663;-71
2021/10/12 00:35:36;;;;;;;55.00;27.70;;;;;;;7.03;56.15;98955.48;113308;1195;107504;-71
2021/10/12 00:38:04;;;;;;;52.00;28.80;;;;;;;7.01;56.00;98951.00;113476;1193;98939;-72
2021/10/12 00:40:32;;;;;;;55.00;29.30;;;;;;;7.01;56.07;98953.50;113451;1193;99005;-73
2021/10/12 00:43:00;;;;;;;59.60;29.80;;;;;;;6.98;56.07;98950.64;113503;1193;112317;-73
2021/10/12 00:45:28;;;;;;;56.40;31.10;;;;;;;6.95;55.97;98951.50;113420;1194;99629;-74
2021/10/12 00:48:05;;;;;;;51.90;28.70;;;;;;;6.94;56.33;98945.73;113409;1193;106577;-73
2021/10/12 00:50:38;;;;;;;54.10;30.40;;;;;;;6.94;56.38;98943.45;113402;1186;98887;-73
2021/10/12 00:53:06;;;;;;;55.00;29.80;;;;;;;6.94;56.33;98938.70;113475;1193;98980;-72
2021/10/12 00:55:41;;;;;;;52.00;29.50;;;;;;;6.94;56.25;98937.32;113380;1193;112574;-72
2021/10/12 00:58:15;;;;;;;58.50;30.60;;;;;;;6.92;56.20;98932.66;113407;1193;97160;-72
2021/10/12 01:00:43;;;;;;;;;;;;;;;6.91;56.13;98925.70;113357;1193;107515;-72
2021/10/12 01:03:15;;;;;;;56.20;29.70;;;;;;;6.88;56.46;98927.11;113351;1193;98900;-72
2021/10/12 01:05:44;;;;;;;54.20;29.60;;;;;;;6.90;56.52;98922.79;113336;1193;97146;-70
2021/10/12 01:08:11;;;;;;;56.90;30.60;;;;;;;6.90;56.50;98917.12;113385;1193;112621;-72
2021/10/12 01:10:39;;;;;;;54.60;31.20;;;;;;;6.89;56.49;98913.65;113401;1193;98222;-72
2021/10/12 01:13:08;;;;;;;52.10;30.20;;;;;;;6.87;56.53;98909.02;113377;1193;107594;-72
2021/10/12 01:15:40;;;;;;;53.40;29.90;;;;;;;6.87;56.65;98901.26;113160;1195;99383;-69
2021/10/12 01:18:16;;;;;;;56.80;30.80;;;;;;;6.86;56.65;98903.95;113376;1193;98991;-71
2021/10/12 01:20:49;;;;;;;53.30;31.40;;;;;;;6.84;56.84;98906.89;113330;1195;112269;-71
2021/10/12 01:23:16;;;;;;;55.30;31.40;;;;;;;6.82;56.63;98903.86;113393;1193;99017;-73
2021/10/12 01:25:49;;;;;;;57.00;30.40;;;;;;;6.78;56.73;98905.13;113384;1193;107564;-71
2021/10/12 01:28:17;;;;;;;60.30;32.20;;;;;;;6.77;56.73;98907.47;113368;1193;98905;-72
2021/10/12 01:30:45;;;;;;;54.50;30.10;;;;;;;6.76;56.93;98907.90;113435;1193;98959;-74
2021/10/12 01:33:13;;;;;;;57.90;31.10;;;;;;;6.75;56.81;98909.56;113368;1193;112332;-72
2021/10/12 01:35:50;;;;;;;56.20;30.60;;;;;;;6.73;56.86;98906.48;113258;1195;96450;-70
2021/10/12 01:38:21;;;;;;;52.40;29.70;;;;;;;6.69;57.16;98907.21;113352;1193;107624;-71
2021/10/12 01:40:49;;;;;;;59.10;30.10;;;;;;;6.68;57.04;98903.63;113387;1193;98853;-70
2021/10/12 01:43:17;;;;;;;56.30;33.70;;;;;;;6.67;57.16;98901.04;113319;1193;99386;-70
2021/10/12 01:45:45;;;;;;;56.00;31.10;;;;;;;6.68;57.14;98904.33;113408;1193;113175;-71
2021/10/12 01:48:13;;;;;;;54.80;30.90;;;;;;;6.68;57.21;98900.96;113436;1193;98996;-70
2021/10/12 01:50:41;;;;;;;61.50;32.80;;;;;;;6.69;57.47;98895.25;113429;1193;107980;-72
2021/10/12 01:53:09;;;;;;;57.10;33.30;;;;;;;6.71;57.49;98894.44;113200;1195;99046;-70
2021/10/12 01:55:42;;;;;;;59.30;31.90;;;;;;;6.74;57.53;98892.71;113388;1193;98940;-70
2021/10/12 01:58:10;;;;;;;58.00;32.50;;;;;;;6.75;57.68;98893.31;113368;1193;112528;-72
2021/10/12 02:00:37;;;;;;;59.30;32.50;;;;;;;6.76;57.96;98888.53;113406;1193;98914;-72
2021/10/12 02:03:10;;;;;;;59.00;33.40;;;;;;;6.79;57.68;98886.05;113386;1193;107450;-70
2021/10/12 02:05:39;;;;;;;57.80;32.60;;;;;;;6.81;57.81;98885.04;113376;1193;99003;-72
2021/10/12 02:08:09;;;;;;;55.90;32.60;;;;;;;6.84;57.93;98885.19;113269;1193;99001;-71
2021/10/12 02:10:37;;;;;;;55.70;31.00;;;;;;;6.88;57.98;98877.62;113366;1194;112103;-71
2021/10/12 02:13:04;;;;;;;59.40;33.00;;;;;;;6.91;58.44;98881.61;113445;1193;96373;-69
2021/10/12 02:15:32;;;;;;;57.60;32.80;;;;;;;6.94;58.76;98876.82;113373;1193;107703;-69
2021/10/12 02:18:05;;;;;;;58.50;34.80;;;;;;;6.99;58.35;98875.14;113364;1193;98995;-69
2021/10/12 02:20:33;;;;;;;57.50;33.40;;;;;;;7.04;59.39;98875.39;113313;1195;98903;-72
2021/10/12 02:23:01;;;;;;;67.80;36.40;;;;;;;7.07;58.75;98872.40;113302;1195;112524;-71
2021/10/12 02:25:29;;;;;;;57.60;34.80;;;;;;;7.11;58.47;98872.33;113257;1195;98978;-71
2021/10/12 02:27:57;;;;;;;65.50;37.90;;;;;;;7.14;58.63;98867.88;113418;1194;107512;-70
2021/10/12 02:30:25;;;;;;;66.10;39.80;;;;;;;7.16;58.57;98867.94;113268;1194;97807;-71
2021/10/12 02:32:52;;;;;;;73.80;40.20;;;;;;;7.16;58.60;98861.92;113280;1195;98991;-72
2021/10/12 02:35:20;;;;;;;69.90;40.00;;;;;;;7.17;58.59;98859.22;113239;1195;112399;-71
2021/10/12 02:37:48;;;;;;;63.80;37.60;;;;;;;7.19;58.62;98853.64;113202;1195;98929;-70
2021/10/12 02:40:16;;;;;;;68.90;39.50;;;;;;;7.19;58.62;98851.69;113283;1195;107288;-69
2021/10/12 02:42:45;;;;;;;65.00;39.70;;;;;;;7.20;58.73;98852.18;113308;1195;99029;-71
2021/10/12 02:45:13;;;;;;;70.00;38.90;;;;;;;7.20;58.77;98843.36;113159;1195;98942;-71
2021/10/12 02:47:45;;;;;;;70.40;41.10;;;;;;;7.20;58.58;98843.17;114675;1193;111464;-71
2021/10/12 02:50:18;;;;;;;66.70;40.70;;;;;;;7.19;58.70;98839.73;113290;1193;96697;-70
2021/10/12 02:52:48;;;;;;;74.30;40.60;;;;;;;7.18;58.81;98838.52;113221;1193;107548;-71
2021/10/12 02:55:16;;;;;;;65.80;38.10;;;;;;;7.18;59.00;98831.81;113286;1193;98910;-71
2021/10/12 02:57:44;;;;;;;62.90;38.80;;;;;;;7.19;58.96;98830.58;113273;1195;99824;-72
2021/10/12 03:00:12;;;;;;;70.10;41.30;;;;;;;7.19;59.04;98831.08;113220;1195;112475;-70
2021/10/12 03:02:40;;;;;;;69.40;38.20;;;;;;;7.19;59.00;98831.77;113458;1193;98847;-73
2021/10/12 03:05:12;;;;;;;67.50;38.00;;;;;;;7.21;59.17;98831.48;113304;1193;107606;-73
2021/10/12 03:07:40;;;;;;;62.20;35.80;;;;;;;7.22;59.00;98832.30;113159;1195;99012;-74
2021/10/12 03:10:10;;;;;;;64.80;39.40;;;;;;;7.22;59.09;98830.52;113260;1195;98938;-72
2021/10/12 03:12:37;;;;;;;67.70;38.80;;;;;;;7.22;58.97;98831.56;113738;1193;112306;-72
2021/10/12 03:15:10;;;;;;;66.80;38.50;;;;;;;7.22;59.24;98830.53;113259;1195;98982;-71
2021/10/12 03:17:39;;;;;;;64.20;37.30;;;;;;;7.22;59.29;98827.34;113160;1194;107495;-70
2021/10/12 03:20:07;;;;;;;68.30;38.80;;;;;;;7.23;59.25;98835.74;113468;1194;99010;-71
2021/10/12 03:22:40;;;;;;;70.20;39.30;;;;;;;7.22;59.37;98834.93;113149;1195;96405;-72
2021/10/12 03:25:09;;;;;;;65.50;39.20;;;;;;;7.19;59.32;98832.84;113253;1194;112057;-71
2021/10/12 03:27:41;;;;;;;65.10;37.50;;;;;;;7.16;59.21;98836.16;113218;1195;98997;-71
2021/10/12 03:30:12;;;;;;;68.20;39.50;;;;;;;7.15;59.35;98837.46;113117;1195;107489;-70
2021/10/12 03:32:40;;;;;;;68.60;41.00;;;;;;;7.14;59.53;98834.52;113164;1196;98989;-69
2021/10/12 03:35:08;;;;;;;67.50;39.40;;;;;;;7.13;59.54;98832.86;113190;1195;96412;-71
2021/10/12 03:37:36;;;;;;;68.70;38.30;;;;;;;7.13;59.94;98830.39;113300;1193;112101;-71
2021/10/12 03:40:05;;;;;;;71.30;41.90;;;;;;;7.11;59.68;98829.09;113350;1193;99007;-71
2021/10/12 03:42:33;;;;;;;70.80;41.20;;;;;;;7.12;59.55;98827.95;113318;1195;107494;-69
2021/10/12 03:45:01;;;;;;;65.60;38.30;;;;;;;7.14;59.69;98829.24;113385;1193;96370;-69
2021/10/12 03:47:29;;;;;;;65.50;40.10;;;;;;;7.13;59.87;98836.17;113259;1195;99008;-70
2021/10/12 03:49:57;;;;;;;68.50;41.10;;;;;;;7.14;59.99;98838.42;113196;1195;112499;-67
2021/10/12 03:52:25;;;;;;;73.40;40.90;;;;;;;7.12;59.94;98839.45;113479;1193;98983;-70
2021/10/12 03:54:54;;;;;;;69.40;41.70;;;;;;;7.12;59.88;98837.83;113323;1178;108577;-69
2021/10/12 03:57:21;;;;;;;72.30;41.80;;;;;;;7.12;59.97;98830.21;113360;1193;96343;-68
2021/10/12 03:59:49;;;;;;;73.50;43.40;;;;;;;7.12;59.98;98825.67;113118;1195;98902;-69
2021/10/12 04:02:17;;;;;;;75.90;44.70;;;;;;;7.11;59.94;98825.42;113255;1193;113050;-69
2021/10/12 04:04:45;;;;;;;78.30;45.20;;;;;;;7.12;59.95;98818.64;113273;1193;99021;-68
2021/10/12 04:07:13;;;;;;;73.40;44.00;;;;;;;7.10;60.02;98814.33;113316;1193;107538;-71
2021/10/12 04:09:41;;;;;;;74.70;44.20;;;;;;;7.09;60.13;98813.33;113227;1195;98877;-68
2021/10/12 04:12:09;;;;;;;73.20;43.70;;;;;;;7.08;60.19;98816.57;113324;1194;98916;-71
2021/10/12 04:14:36;;;;;;;71.30;44.00;;;;;;;7.06;60.45;98817.44;113339;1193;112413;-70
2021/10/12 04:17:04;;;;;;;77.20;43.40;;;;;;;7.03;60.34;98813.36;113290;1195;98996;-71
2021/10/12 04:19:32;;;;;;;77.20;45.20;;;;;;;7.01;60.27;98812.45;113296;1194;107518;-69
2021/10/12 04:22:00;;;;;;;78.60;44.80;;;;;;;6.97;60.37;98806.31;113346;1193;98977;-69
2021/10/12 04:24:27;;;;;;;81.60;47.80;;;;;;;6.95;60.58;98812.63;113197;1195;99012;-70
2021/10/12 04:26:56;;;;;;;82.30;47.80;;;;;;;6.92;60.69;98808.36;113378;1193;112414;-70
2021/10/12 04:29:25;;;;;;;81.00;49.10;;;;;;;6.90;60.59;98806.08;113308;1193;98907;-71
2021/10/12 04:31:55;;;;;;;75.80;45.30;;;;;;;6.88;60.56;98807.23;113328;1193;107553;-69
2021/10/12 04:34:24;;;;;;;79.80;46.50;;;;;;;6.88;60.71;98800.70;113301;1194;99110;-69
2021/10/12 04:36:57;;;;;;;79.60;45.60;;;;;;;6.91;60.68;98796.86;113400;1194;99005;-69
2021/10/12 04:39:29;;;;;;;74.10;44.60;;;;;;;6.92;60.97;98801.52;113363;1193;112626;-71
2021/10/12 04:42:04;;;;;;;75.80;43.20;;;;;;;6.94;60.75;98800.52;113291;1195;98926;-69
2021/10/12 04:44:36;;;;;;;79.30;44.90;;;;;;;6.95;60.91;98797.29;113381;1193;107523;-71
2021/10/12 04:47:04;;;;;;;76.80;42.90;;;;;;;6.96;60.99;98796.68;113301;1193;98920;-73
2021/10/12 04:49:35;;;;;;;78.60;44.80;;;;;;;6.97;60.92;98798.20;113296;1194;98864;-71
2021/10/12 04:52:03;;;;;;;80.90;46.70;;;;;;;6.99;61.16;98797.59;113416;1193;112706;-69
2021/10/12 04:54:35;;;;;;;76.80;44.00;;;;;;;7.00;61.05;98795.02;113240;1193;99447;-70
2021/10/12 04:57:03;;;;;;;81.80;42.60;;;;;;;7.02;61.25;98795.98;113342;1194;107403;-70
2021/10/12 04:59:32;;;;;;;77.30;44.20;;;;;;;7.03;61.18;98801.59;114772;1193;98900;-71
2021/10/12 05:02:00;;;;;;;73.70;43.10;;;;;;;7.02;61.31;98799.52;113029;1195;99003;-70
2021/10/12 05:04:28;;;;;;;78.20;44.50;;;;;;;7.03;61.12;98806.34;113106;1195;112254;-70
2021/10/12 05:06:56;;;;;;;75.30;44.00;;;;;;;7.03;61.14;98803.85;114063;1193;98807;-70
2021/10/12 05:09:23;;;;;;;79.20;45.40;;;;;;;7.02;61.79;98802.14;113181;1193;108020;-72
2021/10/12 05:11:51;;;;;;;82.50;47.90;;;;;;;7.01;61.55;98801.30;113184;1195;99044;-68
2021/10/12 05:14:23;;;;;;;77.40;43.80;;;;;;;7.00;61.90;98796.60;113367;1193;99033;-71
2021/10/12 05:16:54;;;;;;;79.90;45.60;;;;;;;7.00;61.74;98799.08;113336;1193;112500;-68
2021/10/12 05:19:26;;;;;;;80.70;47.70;;;;;;;7.01;61.69;98796.72;113394;1193;99586;-71
2021/10/12 05:21:54;;;;;;;74.00;44.00;;;;;;;7.01;61.71;98797.45;113440;1194;107650;-71
2021/10/12 05:24:27;;;;;;;80.90;45.80;;;;;;;7.02;61.85;98799.86;113385;1193;97529;-69
2021/10/12 05:26:54;;;;;;;77.50;46.10;;;;;;;7.02;61.83;98798.64;113392;1195;98914;-70
2021/10/12 05:29:27;;;;;;;79.60;42.70;;;;;;;7.02;62.06;98799.33;113346;1195;112522;-68
2021/10/12 05:31:55;;;;;;;81.60;46.90;;;;;;;7.02;62.32;98804.11;113424;1193;97107;-71
2021/10/12 05:34:27;;;;;;;79.60;45.80;;;;;;;6.98;61.90;98805.54;113400;1193;107491;-71
2021/10/12 05:36:55;;;;;;;85.20;48.50;;;;;;;6.97;62.55;98804.77;113439;1193;98879;-69
2021/10/12 05:39:23;;;;;;;84.80;47.50;;;;;;;6.96;62.36;98802.30;113463;1193;98905;-70
2021/10/12 05:41:51;;;;;;;79.80;44.90;;;;;;;6.96;62.53;98801.80;113399;1193;113172;-70
2021/10/12 05:44:18;;;;;;;75.70;46.30;;;;;;;6.97;62.48;98802.10;113274;1195;98880;-72
2021/10/12 05:46:46;;;;;;;78.80;46.40;;;;;;;6.98;62.42;98804.86;113279;1193;107615;-71
2021/10/12 05:49:14;;;;;;;80.90;46.50;;;;;;;6.97;62.60;98805.59;113255;1195;99011;-72
2021/10/12 05:51:45;;;;;;;79.80;45.60;;;;;;;6.95;62.56;98806.95;113377;1193;99001;-70
2021/10/12 05:54:20;;;;;;;85.70;48.20;;;;;;;6.97;62.63;98804.74;113443;1193;112488;-72
2021/10/12 05:57:03;;;;;;;82.00;48.50;;;;;;;6.99;62.66;98805.49;113295;1195;98913;-69
2021/10/12 05:59:36;;;;;;;79.50;46.80;;;;;;;6.99;62.72;98804.44;113411;1193;107114;-71
2021/10/12 06:02:04;;;;;;;82.60;46.80;;;;;;;7.00;62.94;98806.67;113385;1193;98902;-70
2021/10/12 06:04:39;;;;;;;82.10;48.30;;;;;;;7.02;63.30;98805.52;113387;1193;97851;-70
2021/10/12 06:07:07;;;;;;;90.90;49.20;;;;;;;7.03;62.91;98806.35;113421;1193;112508;-70
2021/10/12 06:09:35;;;;;;;87.50;50.10;;;;;;;7.04;62.99;98807.48;113464;1193;98986;-70
2021/10/12 06:12:03;;;;;;;89.80;49.10;;;;;;;7.04;63.26;98806.64;113456;1193;107517;-69
2021/10/12 06:14:31;;;;;;;83.80;47.30;;;;;;;7.03;63.15;98808.23;113395;1193;97059;-71
2021/10/12 06:16:58;;;;;;;80.60;45.50;;;;;;;7.05;62.83;98808.83;113474;1194;99046;-72
2021/10/12 06:19:31;;;;;;;81.90;46.90;;;;;;;7.08;63.64;98812.02;113325;1194;112475;-69
2021/10/12 06:21:59;;;;;;;91.10;50.80;;;;;;;7.09;63.30;98815.63;113477;1193;99002;-71
2021/10/12 06:24:26;;;;;;;81.90;46.90;;;;;;;7.11;63.26;98816.58;113344;1195;107585;-72
2021/10/12 06:26:55;;;;;;;92.10;49.90;;;;;;;7.14;63.27;98815.66;113401;1193;99033;-71
2021/10/12 06:29:22;;;;;;;87.90;48.30;;;;;;;7.17;63.38;98817.59;113378;1193;99003;-71
2021/10/12 06:31:50;;;;;;;90.30;49.10;;;;;;;7.22;63.50;98821.22;113353;1194;112590;-69
2021/10/12 06:34:18;;;;;;;86.00;47.70;;;;;;;7.24;63.49;98820.54;113396;1193;98977;-70
2021/10/12 06:36:50;;;;;;;80.60;46.20;;;;;;;7.26;63.47;98818.82;113399;1193;107517;-70
2021/10/12 06:39:18;;;;;;;85.50;48.10;;;;;;;7.32;63.48;98817.05;113409;1193;96388;-70
2021/10/12 06:41:46;;;;;;;85.70;46.10;;;;;;;7.39;63.44;98817.12;113462;1194;99026;-71
2021/10/12 06:44:19;;;;;;;85.10;47.20;;;;;;;7.44;63.53;98814.50;113454;1193;112622;-71
2021/10/12 06:46:46;;;;;;;71.70;40.80;;;;;;;7.52;63.63;98812.06;113406;1194;98922;-70
2021/10/12 06:49:14;;;;;;;66.90;36.70;;;;;;;7.61;63.49;98815.17;113205;1195;107972;-70
2021/10/12 06:51:43;;;;;;;73.40;38.80;;;;;;;7.69;63.80;98818.97;113223;1196;99717;-71
2021/10/12 06:54:24;;;;;;;68.50;39.90;;;;;;;7.77;63.83;98817.90;113396;1195;97404;-73
2021/10/12 06:56:56;;;;;;;68.90;39.60;;;;;;;7.86;64.03;98823.79;113364;1193;112616;-70
2021/10/12 06:59:28;;;;;;;72.20;38.30;;;;;;;7.97;63.96;98819.06;113431;1193;96386;-72
2021/10/12 07:01:56;;;;;;;67.00;39.50;;;;;;;8.05;63.87;98823.64;113499;1193;107446;-71
2021/10/12 07:04:28;;;;;;;65.70;38.10;;;;;;;8.10;63.90;98826.69;113471;1193;99615;-72
2021/10/12 07:06:56;;;;;;;60.90;36.50;;;;;;;8.13;63.89;98828.59;113438;1193;96400;-68
2021/10/12 07:09:24;;;;;;;66.80;35.50;;;;;;;8.16;63.66;98830.88;113460;1193;112534;-71
2021/10/12 07:11:56;;;;;;;64.40;36.60;;;;;;;8.20;63.86;98830.77;113486;1193;99014;-70
2021/10/12 07:14:24;;;;;;;59.70;33.10;;;;;;;8.22;63.80;98830.31;113270;1195;107653;-70
2021/10/12 07:16:52;;;;;;;61.70;33.60;;;;;;;8.24;64.00;98833.56;113216;1194;99028;-71
2021/10/12 07:19:20;;;;;;;66.50;34.60;;;;;;;8.25;63.87;98832.73;113389;1195;98977;-70
2021/10/12 07:21:48;;;;;;;58.00;33.30;;;;;;;8.26;63.94;98832.32;113374;1195;111533;-70
2021/10/12 07:24:15;;;;;;;59.20;33.90;;;;;;;8.32;63.97;98830.17;113347;1196;96307;-70
2021/10/12 07:26:43;;;;;;;59.60;34.40;;;;;;;8.39;63.98;98829.69;113336;1195;107635;-70
2021/10/12 07:29:11;;;;;;;57.30;33.60;;;;;;;8.47;64.09;98825.82;113391;1196;98985;-69
2021/10/12 07:31:39;;;;;;;57.40;32.80;;;;;;;8.61;64.04;98824.90;113392;1179;98940;-71
2021/10/12 07:34:11;;;;;;;58.30;32.50;;;;;;;8.79;64.18;98825.30;113179;1195;112638;-71
2021/10/12 07:36:39;;;;;;;57.00;34.00;;;;;;;8.97;64.14;98823.30;113382;1193;97646;-70
2021/10/12 07:39:11;;;;;;;59.20;35.30;;;;;;;9.05;64.17;98817.27;113406;1193;108559;-70
2021/10/12 07:41:39;;;;;;;54.20;31.80;;;;;;;9.04;64.10;98815.23;113336;1196;96376;-70
2021/10/12 07:44:07;;;;;;;53.50;30.80;;;;;;;9.06;64.03;98820.23;113413;1193;96362;-71
2021/10/12 07:46:35;;;;;;;57.10;33.40;;;;;;;9.05;64.08;98819.71;113442;1193;112548;-70
2021/10/12 07:49:03;;;;;;;56.80;31.90;;;;;;;9.06;64.13;98817.07;113301;1193;96374;-71
2021/10/12 07:51:41;;;;;;;47.10;26.80;;;;;;;9.06;64.13;98816.85;113322;1195;107581;-70
2021/10/12 07:54:16;;;;;;;48.80;25.60;;;;;;;9.07;64.20;98815.86;113215;1195;99018;-70
2021/10/12 07:56:44;;;;;;;45.50;25.50;;;;;;;9.04;64.16;98813.94;113324;1194;99828;-70
2021/10/12 07:59:12;;;;;;;47.30;26.30;;;;;;;9.01;64.31;98815.27;113407;1194;112566;-72
2021/10/12 08:01:41;;;;;;;41.80;23.50;;;;;;;8.94;64.30;98812.56;113388;1193;99564;-70
2021/10/12 08:04:10;;;;;;;43.80;24.50;;;;;;;8.90;64.84;98813.89;113319;1193;107555;-71
2021/10/12 08:06:39;;;;;;;45.00;23.50;;;;;;;8.84;64.47;98809.16;113342;1195;99209;-70
2021/10/12 08:09:07;;;;;;;46.20;26.20;;;;;;;8.82;64.51;98810.92;113382;1193;96388;-70
2021/10/12 08:11:35;;;;;;;44.30;24.90;;;;;;;8.81;64.49;98807.27;113354;1195;112536;-71
2021/10/12 08:14:05;;;;;;;42.00;23.00;;;;;;;8.84;64.54;98807.07;113355;1196;98267;-71
2021/10/12 08:16:33;;;;;;;39.70;21.50;;;;;;;8.85;64.45;98801.70;113145;1196;107537;-70
2021/10/12 08:19:05;;;;;;;39.40;20.90;;;;;;;8.90;64.56;98797.98;113129;1195;98934;-70
2021/10/12 08:21:33;;;;;;;41.20;20.60;;;;;;;8.96;64.35;98791.71;113363;1193;98907;-70
2021/10/12 08:24:02;;;;;;;40.90;20.40;;;;;;;9.08;64.35;98786.68;113342;1193;112494;-72
2021/10/12 08:26:31;;;;;;;35.90;17.60;;;;;;;9.26;64.35;98781.65;113288;1196;101116;-71
2021/10/12 08:28:59;;;;;;;33.00;15.30;;;;;;;9.52;64.42;98780.67;113375;1193;107543;-71
2021/10/12 08:31:27;;;;;;;28.60;13.60;;;;;;;9.76;64.28;98771.65;113342;1193;98914;-70
2021/10/12 08:33:54;;;;;;;32.00;15.30;;;;;;;10.08;64.20;98771.98;113153;1195;98923;-70
2021/10/12 08:36:23;;;;;;;31.60;15.20;;;;;;;10.46;64.21;98767.73;113361;1194;112541;-71
2021/10/12 08:39:07;;;;;;;28.90;13.00;;;;;;;10.67;64.08;98771.58;113379;1193;99033;-71
2021/10/12 08:41:50;;;;;;;27.00;13.20;;;;;;;10.69;64.02;98774.32;113378;1196;106547;-72
2021/10/12 08:44:18;;;;;;;24.80;11.40;;;;;;;10.67;64.01;98773.73;113263;1193;99080;-72
2021/10/12 08:46:48;;;;;;;25.10;11.90;;;;;;;10.68;63.97;98780.93;113272;1193;98971;-71
2021/10/12 08:49:16;;;;;;;28.30;13.10;;;;;;;10.62;63.88;98787.90;113285;1197;112564;-72
2021/10/12 08:51:44;;;;;;;30.80;13.60;;;;;;;10.49;63.72;98789.48;113365;1193;99005;-69
2021/10/12 08:54:17;;;;;;;30.50;13.70;;;;;;;10.35;63.81;98786.58;113281;1196;107606;-71
2021/10/12 08:56:45;;;;;;;32.40;15.20;;;;;;;10.30;63.76;98783.77;113258;1196;98903;-71
2021/10/12 08:59:13;;;;;;;27.80;12.40;;;;;;;10.29;63.86;98784.59;113382;1195;96483;-70
2021/10/12 09:01:57;;;;;;;30.00;14.20;;;;;;;10.29;63.73;98785.10;113185;1196;112732;-71
2021/10/12 09:04:38;;;;;;;27.50;13.90;;;;;;;10.25;63.73;98778.85;113395;1193;98770;-70
2021/10/12 09:07:26;;;;;;;28.60;12.80;;;;;;;10.23;63.67;98774.56;113331;1196;107511;-71
2021/10/12 09:09:57;;;;;;;30.50;13.40;;;;;;;10.24;63.79;98776.42;113364;1195;99040;-72
2021/10/12 09:12:45;;;;;;;26.80;12.90;;;;;;;10.30;63.78;98769.10;113443;1193;96513;-71
2021/10/12 09:15:12;;;;;;;26.50;13.10;;;;;;;10.43;63.81;98768.82;113313;1193;112673;-73
2021/10/12 09:17:42;;;;;;;27.30;12.60;;;;;;;10.56;63.76;98766.26;113193;1195;98929;-71
2021/10/12 09:20:10;;;;;;;28.00;14.40;;;;;;;10.72;63.67;98766.98;113185;1195;107525;-71
2021/10/12 09:23:08;;;;;;;31.90;16.50;;;;;;;10.95;63.47;98762.16;113187;1193;98914;-71
2021/10/12 09:25:45;;;;;;;33.20;16.30;;;;;;;10.93;63.36;98760.88;113151;1193;97457;-69
2021/10/12 09:28:25;;;;;;;31.60;17.40;;;;;;;10.97;63.76;98759.87;113276;1193;111846;-70
2021/10/12 09:30:55;;;;;;;32.30;16.60;;;;;;;11.00;63.64;98764.24;113157;1193;97505;-70
2021/10/12 09:33:23;;;;;;;30.10;14.70;;;;;;;10.93;63.47;98763.01;113219;1195;107992;-71
2021/10/12 09:35:51;;;;;;;30.10;15.50;;;;;;;10.88;63.36;98759.55;113294;1193;99036;-70
2021/10/12 09:38:20;;;;;;;29.30;15.80;;;;;;;10.89;63.50;98754.61;113356;1194;98983;-71
2021/10/12 09:40:50;;;;;;;31.70;15.00;;;;;;;11.00;63.51;98753.42;113283;1196;112599;-71
2021/10/12 09:43:21;;;;;;;28.60;15.80;;;;;;;11.15;63.58;98749.08;113395;1195;98941;-69
2021/10/12 09:45:48;;;;;;;29.40;15.50;;;;;;;11.26;63.50;98749.98;113343;1193;107366;-71
2021/10/12 09:48:35;;;;;;;30.30;15.10;;;;;;;11.26;63.44;98753.33;113219;1195;98899;-70
2021/10/12 09:51:17;;;;;;;32.40;15.10;;;;;;;11.32;63.55;98747.35;113254;1195;98902;-69
2021/10/12 09:53:48;;;;;;;28.10;14.10;;;;;;;11.42;63.59;98755.19;113358;1195;112530;-70
2021/10/12 09:56:18;;;;;;;28.80;14.10;;;;;;;11.40;63.44;98757.14;113367;1193;96300;-68
2021/10/12 09:58:48;;;;;;;28.90;12.20;;;;;;;11.26;63.12;98751.33;113281;1193;107482;-70
2021/10/12 10:01:24;;;;;;;27.60;13.00;;;;;;;11.11;63.16;98749.56;113344;1193;98976;-70
2021/10/12 10:03:55;;;;;;;28.40;14.90;;;;;;;11.00;63.19;98749.33;113413;1195;96373;-71
2021/10/12 10:06:23;;;;;;;29.90;14.10;;;;;;;10.89;63.19;98750.04;113379;1193;112558;-70
2021/10/12 10:08:57;;;;;;;26.20;13.10;;;;;;;10.76;63.21;98746.06;113392;1193;98887;-71
2021/10/12 10:11:44;;;;;;;31.00;13.70;;;;;;;10.70;63.40;98741.42;113181;1195;107521;-71
2021/10/12 10:14:17;;;;;;;29.60;14.80;;;;;;;10.65;63.26;98737.55;113360;1193;98201;-71
2021/10/12 10:16:52;;;;;;;29.00;14.30;;;;;;;10.59;63.32;98732.47;113413;1193;96401;-71
2021/10/12 10:19:27;;;;;;;28.40;14.10;;;;;;;10.54;63.29;98732.91;113431;1193;112615;-73
2021/10/12 10:21:55;;;;;;;29.30;13.90;;;;;;;10.53;63.24;98733.86;113379;1195;98986;-71
2021/10/12 10:24:29;;;;;;;27.30;14.30;;;;;;;10.54;63.43;98725.25;113357;1193;107985;-73
2021/10/12 10:26:58;;;;;;;29.50;13.50;;;;;;;10.60;63.36;98719.36;113331;1193;99083;-71
2021/10/12 10:29:37;;;;;;;25.90;13.30;;;;;;;10.61;63.31;98720.15;113281;1193;98910;-69
2021/10/12 10:32:22;;;;;;;27.40;13.20;;;;;;;10.53;63.27;98721.09;113330;1196;112469;-69
2021/10/12 10:35:02;;;;;;;27.70;13.40;;;;;;;10.49;63.31;98719.83;113151;1197;99055;-70
2021/10/12 10:37:33;;;;;;;26.80;13.70;;;;;;;10.49;63.28;98717.48;113030;1196;108530;-71
2021/10/12 10:40:08;;;;;;;27.20;13.60;;;;;;;10.50;63.29;98713.18;113096;1193;98890;-71
2021/10/12 10:42:41;;;;;;;32.00;16.00;;;;;;;10.50;63.29;98711.23;113422;1193;99004;-71
2021/10/12 10:45:11;;;;;;;29.90;15.00;;;;;;;10.48;63.28;98710.68;113343;1193;112557;-72
2021/10/12 10:47:42;;;;;;;33.00;14.80;;;;;;;10.46;63.30;98710.67;113441;1193;99460;-71
2021/10/12 10:50:32;;;;;;;29.30;13.90;;;;;;;10.48;63.39;98710.11;113396;1194;107632;-71
2021/10/12 10:53:03;;;;;;;29.20;13.70;;;;;;;10.50;63.37;98705.52;113304;1196;98919;-72
2021/10/12 10:55:33;;;;;;;30.20;14.20;;;;;;;10.42;63.10;98701.05;113414;1193;97803;-72
2021/10/12 10:58:00;;;;;;;31.10;14.60;;;;;;;10.31;63.18;98699.39;113208;1193;112600;-73
2021/10/12 11:00:35;;;;;;;26.70;13.50;;;;;;;10.25;63.20;98693.98;113307;1193;99001;-73
2021/10/12 11:03:04;;;;;;;31.20;15.30;;;;;;;10.25;63.25;98692.71;113047;1195;107250;-71
2021/10/12 11:05:37;;;;;;;30.80;14.80;;;;;;;10.24;63.22;98685.14;113057;1194;99005;-70
2021/10/12 11:08:19;;;;;;;31.10;15.50;;;;;;;10.27;63.33;98683.66;113273;1195;99024;-70
2021/10/12 11:10:53;;;;;;;30.90;16.30;;;;;;;10.34;63.39;98680.14;113030;1193;112514;-72
2021/10/12 11:13:30;;;;;;;27.60;15.20;;;;;;;10.35;63.35;98673.02;113516;1193;96698;-71
2021/10/12 11:15:59;;;;;;;35.30;18.40;;;;;;;10.37;63.39;98672.86;113235;1193;107514;-72
2021/10/12 11:18:27;;;;;;;30.20;15.80;;;;;;;10.41;63.34;98673.04;113183;1195;98875;-69
2021/10/12 11:21:02;;;;;;;33.90;17.40;;;;;;;10.41;63.27;98670.97;112946;1193;98879;-71
2021/10/12 11:23:35;;;;;;;31.30;16.70;;;;;;;10.32;63.33;98670.61;113045;1193;113219;-72
2021/10/12 11:26:05;;;;;;;36.40;16.00;;;;;;;10.19;63.24;98674.19;113127;1197;99121;-72